Time;durP1;ratioP1;P1;durP2;ratioP2;P2;SDS_P1;SDS_P2;PMS_P1;PMS_P2;Temp;Humidity;BMP_temperature;BMP_pressure;BME280_temperature;BME280_humidity;BME280_pressure;Samples;Min_cycle;Max_cycle;Signal;HPM_P1;HPM_P2
2021/03/19 00:01:46;;;;;;;29.67;19.02;;;;;;;;;;5020728;28;20054;-87
2021/03/19 00:04:12;;;;;;;30.55;19.02;;;;;;;;;;5020618;28;20044;-87
2021/03/19 00:06:39;;;;;;;33.45;19.83;;;;;;;;;;5003364;28;20029;-87
2021/03/19 00:09:07;;;;;;;31.55;19.67;;;;;;;;;;5003201;28;20022;-87
2021/03/19 00:11:34;;;;;;;33.28;20.25;;;;;;;;;;5003003;28;20049;-86
2021/03/19 00:14:00;;;;;;;28.20;17.95;;;;;;;;;;5020408;28;20030;-87
2021/03/19 00:16:26;;;;;;;29.88;18.75;;;;;;;;;;5003093;28;20022;-87
2021/03/19 00:18:52;;;;;;;32.67;19.73;;;;;;;;;;5020383;28;20301;-87
2021/03/19 00:21:19;;;;;;;36.30;22.27;;;;;;;;;;5002872;28;20029;-87
2021/03/19 00:23:45;;;;;;;38.05;22.40;;;;;;;;;;5020198;28;20125;-87
2021/03/19 00:26:11;;;;;;;34.50;21.70;;;;;;;;;;5002899;28;20026;-87
2021/03/19 00:28:37;;;;;;;32.42;20.70;;;;;;;;;;5020455;28;20044;-87
2021/03/19 00:31:03;;;;;;;32.20;19.90;;;;;;;;;;5020002;28;20459;-87
2021/03/19 00:33:29;;;;;;;35.03;20.15;;;;;;;;;;5002669;28;20025;-88
2021/03/19 00:35:55;;;;;;;30.25;18.85;;;;;;;;;;5019664;28;20121;-87
2021/03/19 00:38:21;;;;;;;33.08;19.90;;;;;;;;;;5019952;28;20026;-87
2021/03/19 00:40:47;;;;;;;28.90;19.65;;;;;;;;;;5019898;28;20049;-87
2021/03/19 00:43:15;;;;;;;31.38;19.63;;;;;;;;;;5019734;28;20049;-87
2021/03/19 00:45:41;;;;;;;29.83;18.77;;;;;;;;;;5019689;28;20038;-86
2021/03/19 00:48:07;;;;;;;31.52;20.05;;;;;;;;;;5019804;28;20037;-86
2021/03/19 00:50:35;;;;;;;30.60;19.20;;;;;;;;;;5019617;28;20022;-86
2021/03/19 00:53:02;;;;;;;33.13;19.73;;;;;;;;;;5019621;28;20079;-86
2021/03/19 00:55:28;;;;;;;32.70;20.60;;;;;;;;;;5019704;28;20036;-86
2021/03/19 00:57:54;;;;;;;34.63;20.92;;;;;;;;;;5001686;28;20042;-85
2021/03/19 01:00:21;;;;;;;36.45;21.70;;;;;;;;;;5002293;28;20030;-87
2021/03/19 01:02:47;;;;;;;35.22;21.40;;;;;;;;;;5019504;28;20404;-87
2021/03/19 01:05:16;;;;;;;36.53;22.77;;;;;;;;;;5002100;28;20404;-86
2021/03/19 01:07:42;;;;;;;36.15;20.67;;;;;;;;;;5001088;28;20029;-86
2021/03/19 01:10:10;;;;;;;36.00;22.23;;;;;;;;;;5019281;28;20320;-86
2021/03/19 01:12:36;;;;;;;38.88;22.65;;;;;;;;;;5019403;28;20041;-85
2021/03/19 01:15:02;;;;;;;41.33;25.73;;;;;;;;;;5019155;28;20030;-86
2021/03/19 01:17:28;;;;;;;42.78;24.95;;;;;;;;;;5018992;28;20025;-85
2021/03/19 01:19:54;;;;;;;53.33;30.27;;;;;;;;;;5019174;28;20093;-85
2021/03/19 01:22:20;;;;;;;52.72;31.08;;;;;;;;;;5018803;28;20050;-86
2021/03/19 01:24:46;;;;;;;45.22;26.30;;;;;;;;;;5018968;28;20109;-87
2021/03/19 01:27:13;;;;;;;41.42;24.70;;;;;;;;;;5018957;28;20051;-87
2021/03/19 01:29:39;;;;;;;40.00;24.45;;;;;;;;;;5019156;28;20386;-87
2021/03/19 01:32:05;;;;;;;48.90;27.55;;;;;;;;;;5018928;28;20088;-87
2021/03/19 01:34:31;;;;;;;41.10;24.45;;;;;;;;;;5001314;28;20096;-87
2021/03/19 01:36:57;;;;;;;40.38;24.20;;;;;;;;;;5018920;28;20022;-87
2021/03/19 01:39:23;;;;;;;38.63;23.40;;;;;;;;;;5018656;28;20052;-86
2021/03/19 01:41:50;;;;;;;34.58;22.05;;;;;;;;;;5018708;28;20033;-86
2021/03/19 01:44:19;;;;;;;35.88;22.80;;;;;;;;;;5000286;28;20034;-86
2021/03/19 01:47:04;;;;;;;37.17;23.45;;;;;;;;;;5018673;28;20037;-89
2021/03/19 01:49:49;;;;;;;38.10;22.42;;;;;;;;;;5000938;28;20057;-88
2021/03/19 01:52:34;;;;;;;38.67;22.63;;;;;;;;;;5018667;28;20053;-88
2021/03/19 01:55:19;;;;;;;38.97;23.67;;;;;;;;;;5000744;28;20034;-88
2021/03/19 01:58:03;;;;;;;37.60;22.80;;;;;;;;;;5018576;28;20059;-87
2021/03/19 02:00:49;;;;;;;37.03;23.17;;;;;;;;;;5001312;28;20093;-88
2021/03/19 02:03:33;;;;;;;34.45;21.20;;;;;;;;;;5018554;28;20026;-87
2021/03/19 02:06:18;;;;;;;38.67;22.52;;;;;;;;;;5018261;28;20412;-88
2021/03/19 02:09:02;;;;;;;41.08;24.45;;;;;;;;;;5018307;28;20052;-87
2021/03/19 02:11:47;;;;;;;38.15;23.88;;;;;;;;;;5000988;28;20068;-87
2021/03/19 02:14:32;;;;;;;36.78;23.92;;;;;;;;;;5000689;28;20029;-84
2021/03/19 02:17:17;;;;;;;43.58;25.33;;;;;;;;;;5018079;28;20078;-85
2021/03/19 02:20:02;;;;;;;40.88;26.40;;;;;;;;;;5000434;28;20053;-84
2021/03/19 02:22:47;;;;;;;62.05;39.15;;;;;;;;;;5017875;28;20046;-84
2021/03/19 02:25:32;;;;;;;57.45;36.22;;;;;;;;;;5000330;28;20379;-84
2021/03/19 02:28:19;;;;;;;55.97;34.47;;;;;;;;;;5000482;28;20026;-84
2021/03/19 02:31:04;;;;;;;44.90;29.23;;;;;;;;;;5017903;28;20032;-84
2021/03/19 02:33:30;;;;;;;49.38;30.17;;;;;;;;;;5000487;28;20116;-85
2021/03/19 02:35:58;;;;;;;44.65;27.92;;;;;;;;;;5017375;28;20037;-86
2021/03/19 02:38:24;;;;;;;45.88;28.67;;;;;;;;;;5017983;28;20021;-86
2021/03/19 02:40:51;;;;;;;43.38;26.48;;;;;;;;;;5017707;28;20029;-86
2021/03/19 02:43:18;;;;;;;44.08;26.17;;;;;;;;;;5000475;28;20026;-87
2021/03/19 02:45:44;;;;;;;39.17;24.88;;;;;;;;;;5018005;28;20313;-87
2021/03/19 02:48:10;;;;;;;40.00;24.40;;;;;;;;;;5000018;28;20018;-87
2021/03/19 02:50:37;;;;;;;41.00;24.13;;;;;;;;;;5017910;28;20025;-86
2021/03/19 02:53:03;;;;;;;38.35;24.27;;;;;;;;;;5017768;28;20057;-87
2021/03/19 02:55:29;;;;;;;37.63;24.50;;;;;;;;;;5017611;28;20065;-86
2021/03/19 02:57:56;;;;;;;36.90;25.70;;;;;;;;;;5017762;28;20104;-85
2021/03/19 03:00:24;;;;;;;37.67;23.65;;;;;;;;;;5017580;28;20030;-86
2021/03/19 03:02:50;;;;;;;38.97;25.08;;;;;;;;;;5017612;28;20026;-86
2021/03/19 03:05:17;;;;;;;35.50;22.85;;;;;;;;;;5017615;28;20121;-86
2021/03/19 03:07:44;;;;;;;37.53;24.70;;;;;;;;;;5017593;28;20101;-86
2021/03/19 03:10:12;;;;;;;39.17;25.77;;;;;;;;;;4999835;28;20096;-87
2021/03/19 03:12:38;;;;;;;43.22;25.33;;;;;;;;;;5017137;28;20026;-86
2021/03/19 03:15:08;;;;;;;39.13;25.35;;;;;;;;;;5017316;28;20113;-86
2021/03/19 03:17:35;;;;;;;42.10;26.92;;;;;;;;;;4999716;28;20113;-87
2021/03/19 03:20:01;;;;;;;44.42;27.33;;;;;;;;;;5017439;28;20049;-86
2021/03/19 03:22:27;;;;;;;47.50;27.10;;;;;;;;;;4999959;28;20038;-87
2021/03/19 03:24:53;;;;;;;42.92;27.52;;;;;;;;;;5017149;28;20120;-85
2021/03/19 03:27:19;;;;;;;42.95;26.67;;;;;;;;;;5017783;28;20026;-86
2021/03/19 03:29:46;;;;;;;46.90;28.27;;;;;;;;;;5000326;28;20038;-85
2021/03/19 03:32:12;;;;;;;43.72;27.65;;;;;;;;;;5021058;28;20037;-85
2021/03/19 03:34:38;;;;;;;41.67;26.92;;;;;;;;;;5021031;28;20026;-85
2021/03/19 03:37:05;;;;;;;43.85;26.95;;;;;;;;;;5003698;28;20359;-86
2021/03/19 03:39:32;;;;;;;41.42;25.63;;;;;;;;;;5020981;28;20037;-87
2021/03/19 03:42:02;;;;;;;44.88;26.70;;;;;;;;;;5020952;28;20022;-87
2021/03/19 03:44:28;;;;;;;43.15;26.92;;;;;;;;;;5021061;28;20055;-86
2021/03/19 03:46:55;;;;;;;45.15;28.25;;;;;;;;;;5020550;28;20026;-87
2021/03/19 03:49:21;;;;;;;44.45;28.83;;;;;;;;;;5020871;28;20555;-87
2021/03/19 03:51:47;;;;;;;47.42;28.35;;;;;;;;;;5003617;28;20117;-86
2021/03/19 03:54:13;;;;;;;46.33;29.65;;;;;;;;;;5003119;28;20052;-86
2021/03/19 03:56:39;;;;;;;47.88;29.80;;;;;;;;;;5020611;28;20064;-86
2021/03/19 03:59:06;;;;;;;50.00;29.42;;;;;;;;;;5020851;28;20028;-86
2021/03/19 04:01:33;;;;;;;61.15;35.03;;;;;;;;;;5003241;28;20358;-87
2021/03/19 04:03:59;;;;;;;69.80;41.95;;;;;;;;;;5020863;28;20049;-87
2021/03/19 04:06:25;;;;;;;62.70;36.92;;;;;;;;;;5020454;28;20112;-87
2021/03/19 04:08:51;;;;;;;57.03;34.13;;;;;;;;;;5020429;28;20025;-87
2021/03/19 04:11:18;;;;;;;64.68;36.70;;;;;;;;;;5020413;28;20034;-86
2021/03/19 04:13:45;;;;;;;58.88;36.40;;;;;;;;;;5020189;28;20102;-85
2021/03/19 04:16:12;;;;;;;60.95;34.63;;;;;;;;;;5020093;28;20026;-85
2021/03/19 04:18:38;;;;;;;50.95;30.38;;;;;;;;;;5002648;28;20137;-85
2021/03/19 04:21:09;;;;;;;49.10;29.58;;;;;;;;;;5002790;28;20025;-86
2021/03/19 04:23:36;;;;;;;47.08;28.88;;;;;;;;;;5002533;28;20376;-85
2021/03/19 04:26:03;;;;;;;49.78;29.73;;;;;;;;;;5020403;28;20072;-85
2021/03/19 04:28:32;;;;;;;51.25;30.33;;;;;;;;;;5020073;28;20478;-86
2021/03/19 04:30:58;;;;;;;47.30;28.50;;;;;;;;;;5002429;28;20030;-85
2021/03/19 04:33:26;;;;;;;49.80;31.85;;;;;;;;;;5002334;28;20030;-85
2021/03/19 04:36:11;;;;;;;46.40;30.33;;;;;;;;;;5019732;28;20109;-86
2021/03/19 04:38:37;;;;;;;48.15;29.98;;;;;;;;;;5019908;28;20065;-87
2021/03/19 04:41:05;;;;;;;51.22;31.60;;;;;;;;;;5002394;28;20084;-86
2021/03/19 04:43:32;;;;;;;52.33;32.33;;;;;;;;;;5019740;28;20057;-86
2021/03/19 04:45:58;;;;;;;51.10;32.78;;;;;;;;;;5002571;28;20033;-86
2021/03/19 04:48:24;;;;;;;42.60;27.98;;;;;;;;;;5002284;28;20088;-86
2021/03/19 04:50:50;;;;;;;46.65;28.15;;;;;;;;;;5001929;28;20400;-86
2021/03/19 04:53:16;;;;;;;45.67;27.65;;;;;;;;;;5019622;28;20057;-87
2021/03/19 04:55:42;;;;;;;40.97;25.95;;;;;;;;;;5002354;28;20435;-86
2021/03/19 04:58:08;;;;;;;38.22;24.40;;;;;;;;;;5019638;28;20091;-86
2021/03/19 05:00:34;;;;;;;40.80;23.73;;;;;;;;;;5002332;28;20026;-87
2021/03/19 05:03:01;;;;;;;31.77;20.42;;;;;;;;;;5019516;28;20118;-86
2021/03/19 05:05:31;;;;;;;27.52;17.77;;;;;;;;;;5002212;28;20022;-87
2021/03/19 05:07:59;;;;;;;25.58;17.05;;;;;;;;;;5019513;28;20049;-87
2021/03/19 05:10:30;;;;;;;26.92;16.42;;;;;;;;;;5002118;28;20077;-87
2021/03/19 05:12:58;;;;;;;23.77;15.83;;;;;;;;;;5002011;28;20025;-86
2021/03/19 05:15:25;;;;;;;53.88;30.75;;;;;;;;;;5001987;28;20029;-86
2021/03/19 05:17:52;;;;;;;36.83;23.92;;;;;;;;;;5019103;28;20080;-86
2021/03/19 05:20:18;;;;;;;35.83;20.80;;;;;;;;;;5001720;28;20221;-85
2021/03/19 05:22:44;;;;;;;35.13;21.33;;;;;;;;;;5019024;28;20061;-86
2021/03/19 05:25:12;;;;;;;53.85;28.05;;;;;;;;;;5019013;28;20034;-85
2021/03/19 05:27:38;;;;;;;53.38;27.23;;;;;;;;;;5018942;28;20030;-86
2021/03/19 05:30:06;;;;;;;46.47;23.73;;;;;;;;;;5018864;28;20022;-86
2021/03/19 05:32:32;;;;;;;48.85;23.35;;;;;;;;;;5018749;28;20026;-86
2021/03/19 05:34:59;;;;;;;40.00;21.52;;;;;;;;;;5018695;28;20416;-86
2021/03/19 05:37:25;;;;;;;34.55;20.30;;;;;;;;;;5018876;28;20470;-86
2021/03/19 05:39:51;;;;;;;38.45;22.42;;;;;;;;;;5001612;28;20486;-86
2021/03/19 05:42:31;;;;;;;37.22;21.35;;;;;;;;;;5019030;28;20101;-86
2021/03/19 05:45:20;;;;;;;43.05;23.83;;;;;;;;;;5018546;28;20030;-86
2021/03/19 05:47:46;;;;;;;34.85;20.00;;;;;;;;;;5008377;28;20048;-87
2021/03/19 05:50:32;;;;;;;29.73;18.27;;;;;;;;;;5018521;28;20026;-86
2021/03/19 05:53:28;;;;;;;40.22;21.52;;;;;;;;;;5017902;28;20328;-86
2021/03/19 05:55:54;;;;;;;46.50;26.40;;;;;;;;;;4939179;28;20035;-85
2021/03/19 05:58:26;;;;;;;43.17;21.13;;;;;;;;;;4939330;29;20066;-85
2021/03/19 06:00:56;;;;;;;29.63;17.55;;;;;;;;;;4923574;29;20093;-85
2021/03/19 06:03:22;;;;;;;43.00;25.33;;;;;;;;;;4939357;29;20035;-84
2021/03/19 06:06:14;;;;;;;36.13;22.80;;;;;;;;;;4923330;29;20036;-86
2021/03/19 06:08:48;;;;;;;37.43;23.07;;;;;;;;;;4936611;29;20079;-85
2021/03/19 06:11:17;;;;;;;34.90;20.30;;;;;;;;;;4938957;29;20074;-86
2021/03/19 06:13:51;;;;;;;41.67;19.88;;;;;;;;;;4923351;29;20040;-85
2021/03/19 06:16:17;;;;;;;84.28;39.85;;;;;;;;;;4922979;29;20039;-85
2021/03/19 06:18:48;;;;;;;59.58;29.10;;;;;;;;;;4938699;29;20076;-85
2021/03/19 06:21:20;;;;;;;47.22;26.17;;;;;;;;;;4938802;29;20034;-84
2021/03/19 06:23:58;;;;;;;39.70;20.65;;;;;;;;;;4923341;29;20048;-85
2021/03/19 06:26:26;;;;;;;34.83;19.55;;;;;;;;;;4938589;29;20028;-85
2021/03/19 06:29:04;;;;;;;42.65;20.95;;;;;;;;;;4938743;29;20116;-85
2021/03/19 06:31:32;;;;;;;35.17;19.73;;;;;;;;;;4938061;28;20315;-85
2021/03/19 06:34:10;;;;;;;30.90;17.85;;;;;;;;;;5017442;28;20355;-85
2021/03/19 06:36:51;;;;;;;29.98;17.38;;;;;;;;;;5017996;28;20022;-86
2021/03/19 06:39:20;;;;;;;27.88;16.27;;;;;;;;;;5000557;28;20026;-85
2021/03/19 06:42:00;;;;;;;26.48;15.68;;;;;;;;;;5000211;28;20034;-79
2021/03/19 06:44:26;;;;;;;31.48;16.35;;;;;;;;;;4999466;28;20038;-75
2021/03/19 06:47:00;;;;;;;32.53;18.73;;;;;;;;;;4999821;28;20076;-75
2021/03/19 06:49:26;;;;;;;36.25;19.85;;;;;;;;;;4999741;28;20045;-75
2021/03/19 06:51:54;;;;;;;32.38;18.48;;;;;;;;;;5017006;28;20084;-81
2021/03/19 06:54:22;;;;;;;31.92;19.83;;;;;;;;;;5016938;28;20034;-75
2021/03/19 06:57:14;;;;;;;53.40;25.25;;;;;;;;;;5017085;28;20030;-75
2021/03/19 06:59:46;;;;;;;59.63;27.38;;;;;;;;;;5013602;28;20041;-75
2021/03/19 07:02:31;;;;;;;80.30;33.67;;;;;;;;;;5017037;28;20026;-75
2021/03/19 07:05:16;;;;;;;49.47;22.10;;;;;;;;;;5019727;28;20037;-75
2021/03/19 07:08:05;;;;;;;46.55;23.20;;;;;;;;;;5021140;28;20320;-75
2021/03/19 07:10:40;;;;;;;59.65;28.73;;;;;;;;;;4941673;29;20126;-75
2021/03/19 07:13:09;;;;;;;94.57;42.70;;;;;;;;;;4941494;29;20068;-75
2021/03/19 07:15:39;;;;;;;66.10;32.75;;;;;;;;;;4941390;29;20068;-75
2021/03/19 07:18:13;;;;;;;56.95;33.65;;;;;;;;;;4941242;29;20111;-75
2021/03/19 07:20:39;;;;;;;57.92;33.53;;;;;;;;;;4925337;29;20024;-75
2021/03/19 07:23:11;;;;;;;54.78;30.98;;;;;;;;;;4941268;29;20126;-75
2021/03/19 07:25:40;;;;;;;29.35;18.55;;;;;;;;;;4941419;29;20114;-75
2021/03/19 07:28:27;;;;;;;59.47;37.30;;;;;;;;;;4941236;29;20123;-75
2021/03/19 07:31:01;;;;;;;30.40;18.35;;;;;;;;;;4941033;29;20056;-75
2021/03/19 07:33:27;;;;;;;27.58;17.95;;;;;;;;;;4940990;29;20108;-75
2021/03/19 07:36:11;;;;;;;32.75;19.30;;;;;;;;;;4941181;29;20111;-75
2021/03/19 07:39:01;;;;;;;28.00;16.60;;;;;;;;;;4941006;29;20031;-75
2021/03/19 07:41:45;;;;;;;28.20;18.65;;;;;;;;;;4941147;29;20035;-75
2021/03/19 07:44:14;;;;;;;26.38;16.80;;;;;;;;;;4941075;29;20076;-75
2021/03/19 07:46:49;;;;;;;34.15;20.08;;;;;;;;;;4953878;28;20133;-75
2021/03/19 07:49:15;;;;;;;25.42;16.15;;;;;;;;;;5002837;28;20053;-75
2021/03/19 07:51:41;;;;;;;26.85;17.02;;;;;;;;;;5020474;28;20026;-75
2021/03/19 07:54:10;;;;;;;22.67;14.88;;;;;;;;;;5020281;28;20030;-75
2021/03/19 07:56:36;;;;;;;23.80;14.65;;;;;;;;;;5020233;28;20064;-75
2021/03/19 07:59:11;;;;;;;30.52;17.83;;;;;;;;;;5020257;28;20022;-75
2021/03/19 08:01:55;;;;;;;29.85;17.08;;;;;;;;;;5002285;28;20117;-75
2021/03/19 08:04:26;;;;;;;39.15;19.77;;;;;;;;;;5002705;28;20096;-75
2021/03/19 08:06:54;;;;;;;28.75;16.45;;;;;;;;;;5002639;28;20061;-75
2021/03/19 08:09:39;;;;;;;30.25;16.80;;;;;;;;;;5002180;28;20034;-75
2021/03/19 08:12:26;;;;;;;33.00;19.30;;;;;;;;;;5019780;28;20427;-75
2021/03/19 08:14:52;;;;;;;103.32;57.30;;;;;;;;;;5019730;28;20052;-75
2021/03/19 08:17:36;;;;;;;63.00;40.38;;;;;;;;;;5001628;28;20394;-75
2021/03/19 08:20:02;;;;;;;26.63;16.02;;;;;;;;;;5019622;28;20037;-75
2021/03/19 08:22:34;;;;;;;24.92;14.57;;;;;;;;;;5019417;28;20051;-75
2021/03/19 08:25:00;;;;;;;21.48;13.40;;;;;;;;;;5019856;28;20029;-75
2021/03/19 08:27:46;;;;;;;22.75;14.13;;;;;;;;;;5019759;28;20108;-75
2021/03/19 08:30:24;;;;;;;22.55;14.52;;;;;;;;;;5002165;28;20487;-75
2021/03/19 08:32:53;;;;;;;21.63;13.73;;;;;;;;;;5019536;28;20026;-75
2021/03/19 08:35:28;;;;;;;19.40;12.48;;;;;;;;;;5002032;28;20022;-75
2021/03/19 08:38:11;;;;;;;19.77;12.23;;;;;;;;;;5019367;28;20049;-75
2021/03/19 08:40:43;;;;;;;18.33;11.63;;;;;;;;;;5019372;28;20026;-75
2021/03/19 08:43:29;;;;;;;15.93;11.07;;;;;;;;;;5019408;28;20416;-75
2021/03/19 08:46:07;;;;;;;31.00;14.95;;;;;;;;;;5019167;28;20491;-75
2021/03/19 08:48:34;;;;;;;21.30;13.02;;;;;;;;;;5019272;28;20034;-75
2021/03/19 08:51:14;;;;;;;19.73;13.40;;;;;;;;;;5019403;28;20069;-75
2021/03/19 08:54:19;;;;;;;24.10;13.00;;;;;;;;;;5002011;28;20305;-75
2021/03/19 08:56:48;;;;;;;32.60;17.85;;;;;;;;;;4923809;29;20083;-75
2021/03/19 08:59:32;;;;;;;49.83;27.73;;;;;;;;;;4939757;29;20030;-75
2021/03/19 09:02:01;;;;;;;53.53;29.25;;;;;;;;;;4939601;29;20115;-75
2021/03/19 09:04:46;;;;;;;64.07;33.33;;;;;;;;;;4939494;29;20135;-75
2021/03/19 09:07:18;;;;;;;52.10;28.17;;;;;;;;;;4939474;29;20027;-75
2021/03/19 09:09:44;;;;;;;58.28;31.33;;;;;;;;;;4939523;29;20071;-75
2021/03/19 09:12:12;;;;;;;23.85;12.98;;;;;;;;;;4939361;29;20036;-75
2021/03/19 09:14:40;;;;;;;19.55;11.55;;;;;;;;;;4923324;29;20052;-75
2021/03/19 09:17:07;;;;;;;19.02;11.25;;;;;;;;;;4939017;29;20323;-75
2021/03/19 09:19:41;;;;;;;17.98;10.63;;;;;;;;;;4939025;29;20102;-75
2021/03/19 09:22:24;;;;;;;18.05;11.98;;;;;;;;;;4923388;29;20050;-75
2021/03/19 09:25:08;;;;;;;17.45;10.65;;;;;;;;;;4939259;29;20087;-75
2021/03/19 09:27:35;;;;;;;17.05;11.18;;;;;;;;;;4961288;28;20034;-75
2021/03/19 09:30:09;;;;;;;20.50;11.75;;;;;;;;;;4998831;28;20054;-75
2021/03/19 09:32:40;;;;;;;18.08;10.48;;;;;;;;;;4998907;28;20038;-75
2021/03/19 09:35:34;;;;;;;17.30;11.13;;;;;;;;;;4998586;28;20147;-75
2021/03/19 09:38:01;;;;;;;18.23;11.70;;;;;;;;;;4998728;28;20595;-75
2021/03/19 09:40:39;;;;;;;16.58;10.57;;;;;;;;;;4998701;28;20046;-75
2021/03/19 09:43:08;;;;;;;19.50;11.77;;;;;;;;;;4998542;28;20038;-75
2021/03/19 09:45:35;;;;;;;19.15;11.13;;;;;;;;;;4998536;28;20049;-75
2021/03/19 09:48:04;;;;;;;23.50;12.45;;;;;;;;;;4998406;28;20606;-75
2021/03/19 09:50:33;;;;;;;18.50;12.52;;;;;;;;;;4998473;28;20027;-75
2021/03/19 09:53:07;;;;;;;20.77;13.70;;;;;;;;;;4996686;28;20038;-75
2021/03/19 09:55:36;;;;;;;22.42;11.90;;;;;;;;;;4998445;28;20157;-75
2021/03/19 09:58:08;;;;;;;37.13;20.45;;;;;;;;;;4998246;28;20420;-75
2021/03/19 10:00:34;;;;;;;;;;;;;;;;;;4998743;28;20057;-75
2021/03/19 10:03:11;;;;;;;41.78;20.85;;;;;;;;;;4998114;28;20289;-75
2021/03/19 10:05:38;;;;;;;41.95;22.23;;;;;;;;;;4998051;28;20037;-75
2021/03/19 10:08:05;;;;;;;38.38;20.98;;;;;;;;;;4998091;28;20118;-75
2021/03/19 10:10:31;;;;;;;29.23;17.10;;;;;;;;;;4998327;28;20034;-75
2021/03/19 10:13:16;;;;;;;38.45;21.33;;;;;;;;;;4998202;28;20328;-75
2021/03/19 10:15:43;;;;;;;38.33;20.98;;;;;;;;;;4996337;28;20420;-75
2021/03/19 10:18:10;;;;;;;36.65;20.58;;;;;;;;;;4997786;28;20034;-76
2021/03/19 10:20:36;;;;;;;30.55;16.83;;;;;;;;;;4996844;28;20057;-75
2021/03/19 10:23:09;;;;;;;42.55;21.88;;;;;;;;;;5012290;28;20061;-75
2021/03/19 10:25:36;;;;;;;32.10;17.23;;;;;;;;;;5000036;28;20026;-75
2021/03/19 10:28:05;;;;;;;30.50;19.17;;;;;;;;;;5017458;28;20026;-75
2021/03/19 10:30:43;;;;;;;30.67;16.63;;;;;;;;;;5017377;28;20026;-75
2021/03/19 10:33:13;;;;;;;29.30;16.35;;;;;;;;;;5017505;28;20075;-75
2021/03/19 10:35:40;;;;;;;26.63;15.32;;;;;;;;;;5017429;28;20127;-75
2021/03/19 10:38:10;;;;;;;25.80;15.57;;;;;;;;;;5017294;28;20096;-75
2021/03/19 10:40:38;;;;;;;24.48;15.50;;;;;;;;;;5017220;28;20018;-75
2021/03/19 10:43:10;;;;;;;37.00;20.27;;;;;;;;;;5017137;28;20404;-75
2021/03/19 10:45:55;;;;;;;22.00;14.88;;;;;;;;;;4999700;28;20042;-75
2021/03/19 10:48:31;;;;;;;26.85;15.48;;;;;;;;;;4999483;28;20026;-75
2021/03/19 10:51:00;;;;;;;31.80;19.02;;;;;;;;;;5017087;28;20026;-75
2021/03/19 10:53:34;;;;;;;37.97;21.02;;;;;;;;;;5017181;28;20080;-75
2021/03/19 10:56:02;;;;;;;30.17;17.33;;;;;;;;;;5016962;28;20113;-75
2021/03/19 10:58:28;;;;;;;19.40;12.57;;;;;;;;;;5017298;28;20068;-75
2021/03/19 11:00:54;;;;;;;15.07;10.00;;;;;;;;;;5017046;28;20018;-75
2021/03/19 11:03:49;;;;;;;12.50;9.10;;;;;;;;;;4999128;28;20034;-75
2021/03/19 11:06:33;;;;;;;16.77;9.55;;;;;;;;;;5017282;28;20022;-75
2021/03/19 11:09:25;;;;;;;12.75;9.35;;;;;;;;;;4999311;28;20034;-75
2021/03/19 11:11:56;;;;;;;13.98;8.93;;;;;;;;;;5013747;28;20219;-75
2021/03/19 11:14:25;;;;;;;13.73;9.63;;;;;;;;;;5016833;28;20034;-75
2021/03/19 11:16:52;;;;;;;12.55;9.00;;;;;;;;;;5016624;28;20033;-75
2021/03/19 11:19:18;;;;;;;12.90;8.43;;;;;;;;;;5016937;28;20022;-75
2021/03/19 11:21:46;;;;;;;220.52;117.28;;;;;;;;;;5016778;28;20045;-75
2021/03/19 11:24:19;;;;;;;54.42;32.35;;;;;;;;;;4999053;28;20073;-76
2021/03/19 11:26:54;;;;;;;19.85;10.95;;;;;;;;;;4998714;28;20033;-75
2021/03/19 11:29:39;;;;;;;19.10;12.27;;;;;;;;;;5016921;28;20030;-75
2021/03/19 11:32:11;;;;;;;15.20;10.50;;;;;;;;;;5016667;28;20455;-75
2021/03/19 11:34:40;;;;;;;20.15;12.40;;;;;;;;;;5016830;28;20435;-75
2021/03/19 11:37:08;;;;;;;26.63;15.55;;;;;;;;;;5016875;28;20073;-76
2021/03/19 11:39:37;;;;;;;16.15;11.00;;;;;;;;;;5016907;28;20101;-76
2021/03/19 11:42:05;;;;;;;30.27;17.23;;;;;;;;;;4999038;28;20030;-75
2021/03/19 11:44:31;;;;;;;17.27;12.10;;;;;;;;;;5015671;28;20413;-76
2021/03/19 11:46:58;;;;;;;31.27;16.67;;;;;;;;;;5016616;28;20030;-75
2021/03/19 11:49:24;;;;;;;18.20;12.05;;;;;;;;;;5016745;28;20064;-75
2021/03/19 11:51:50;;;;;;;18.70;11.60;;;;;;;;;;5001219;28;20065;-75
2021/03/19 11:54:16;;;;;;;14.35;9.07;;;;;;;;;;5020045;28;20033;-76
2021/03/19 11:56:42;;;;;;;24.50;15.65;;;;;;;;;;5020189;28;20026;-75
2021/03/19 11:59:12;;;;;;;28.98;16.90;;;;;;;;;;5020066;28;20015;-76
2021/03/19 12:01:38;;;;;;;15.23;9.82;;;;;;;;;;5020072;28;20018;-76
2021/03/19 12:04:05;;;;;;;13.85;8.68;;;;;;;;;;5002279;28;20030;-75
2021/03/19 12:06:32;;;;;;;14.80;8.85;;;;;;;;;;5020043;28;20360;-75
2021/03/19 12:08:59;;;;;;;21.98;18.80;;;;;;;;;;5020166;28;20317;-76
2021/03/19 12:11:37;;;;;;;26.67;23.40;;;;;;;;;;5002491;28;20033;-75
2021/03/19 12:14:05;;;;;;;53.80;48.08;;;;;;;;;;5019774;28;20022;-75
2021/03/19 12:16:31;;;;;;;30.15;25.77;;;;;;;;;;5020001;28;20022;-75
2021/03/19 12:18:57;;;;;;;35.55;31.73;;;;;;;;;;5002385;28;20022;-75
2021/03/19 12:21:24;;;;;;;15.45;10.57;;;;;;;;;;5019726;28;20030;-75
2021/03/19 12:23:50;;;;;;;44.80;39.13;;;;;;;;;;5019711;28;20034;-76
2021/03/19 12:26:17;;;;;;;30.77;24.48;;;;;;;;;;5019624;28;20030;-75
2021/03/19 12:28:43;;;;;;;16.63;11.95;;;;;;;;;;5019622;28;20022;-75
2021/03/19 12:31:11;;;;;;;16.95;11.30;;;;;;;;;;5019441;28;20316;-76
2021/03/19 12:33:38;;;;;;;13.27;8.75;;;;;;;;;;5019496;28;20033;-75
2021/03/19 12:36:05;;;;;;;15.25;9.30;;;;;;;;;;5019291;28;20072;-76
2021/03/19 12:38:32;;;;;;;17.30;10.93;;;;;;;;;;5019314;28;20033;-76
2021/03/19 12:40:59;;;;;;;16.40;9.23;;;;;;;;;;5019208;28;20022;-76
2021/03/19 12:43:25;;;;;;;20.23;10.20;;;;;;;;;;5001876;28;20108;-76
2021/03/19 12:45:52;;;;;;;18.13;10.75;;;;;;;;;;5018989;28;20511;-76
2021/03/19 12:48:18;;;;;;;18.55;10.95;;;;;;;;;;5019119;28;20096;-76
2021/03/19 12:50:44;;;;;;;15.32;9.90;;;;;;;;;;5019079;28;20029;-76
2021/03/19 12:53:14;;;;;;;14.98;9.32;;;;;;;;;;5019157;28;20041;-75
2021/03/19 12:55:41;;;;;;;13.35;9.55;;;;;;;;;;5001807;28;20363;-76
2021/03/19 12:58:07;;;;;;;11.88;9.30;;;;;;;;;;5018928;28;20073;-75
2021/03/19 13:00:35;;;;;;;13.13;8.80;;;;;;;;;;5018980;28;20105;-75
2021/03/19 13:03:01;;;;;;;12.60;8.80;;;;;;;;;;5018855;28;20018;-75
2021/03/19 13:05:28;;;;;;;10.88;8.52;;;;;;;;;;5001422;28;20061;-76
2021/03/19 13:07:54;;;;;;;18.75;8.00;;;;;;;;;;5018823;28;20375;-75
2021/03/19 13:10:21;;;;;;;12.88;8.23;;;;;;;;;;5018789;28;20400;-76
2021/03/19 13:12:47;;;;;;;10.52;7.55;;;;;;;;;;5019047;28;20075;-76
2021/03/19 13:15:14;;;;;;;14.82;8.60;;;;;;;;;;5018750;28;20065;-76
2021/03/19 13:17:40;;;;;;;16.33;9.35;;;;;;;;;;5018661;28;20113;-76
2021/03/19 13:20:08;;;;;;;13.88;9.23;;;;;;;;;;5018775;28;20068;-76
2021/03/19 13:22:35;;;;;;;12.30;7.78;;;;;;;;;;5018401;28;20052;-76
2021/03/19 13:25:01;;;;;;;11.77;8.32;;;;;;;;;;5000629;28;20161;-76
2021/03/19 13:27:28;;;;;;;15.35;8.52;;;;;;;;;;5018440;28;20033;-75
2021/03/19 13:29:54;;;;;;;15.25;9.65;;;;;;;;;;5018447;28;20113;-76
2021/03/19 13:32:20;;;;;;;19.58;11.18;;;;;;;;;;5018374;28;20030;-75
2021/03/19 13:34:46;;;;;;;17.45;10.85;;;;;;;;;;5018194;28;20112;-75
2021/03/19 13:37:12;;;;;;;24.35;12.73;;;;;;;;;;5018316;28;20030;-75
2021/03/19 13:39:38;;;;;;;16.63;10.07;;;;;;;;;;5001089;28;20060;-75
2021/03/19 13:42:08;;;;;;;15.35;8.75;;;;;;;;;;5018243;28;20048;-75
2021/03/19 13:44:35;;;;;;;13.18;8.80;;;;;;;;;;5018222;28;20385;-76
2021/03/19 13:47:01;;;;;;;16.52;9.10;;;;;;;;;;5000353;28;20038;-75
2021/03/19 13:49:29;;;;;;;15.10;9.93;;;;;;;;;;5000516;28;20376;-75
2021/03/19 13:51:55;;;;;;;13.18;8.18;;;;;;;;;;5018310;28;20412;-75
2021/03/19 13:54:21;;;;;;;15.55;9.95;;;;;;;;;;5017959;28;20030;-75
2021/03/19 13:56:47;;;;;;;13.27;9.10;;;;;;;;;;5017947;28;20033;-76
2021/03/19 13:59:13;;;;;;;19.00;10.63;;;;;;;;;;5018108;28;20026;-76
2021/03/19 14:01:39;;;;;;;15.77;11.27;;;;;;;;;;5017823;28;20026;-75
2021/03/19 14:04:08;;;;;;;15.77;9.60;;;;;;;;;;5000349;28;20022;-75
2021/03/19 14:06:37;;;;;;;14.75;10.45;;;;;;;;;;5017832;28;20349;-75
2021/03/19 14:09:04;;;;;;;16.52;9.98;;;;;;;;;;5000417;28;20022;-75
2021/03/19 14:11:31;;;;;;;26.63;12.82;;;;;;;;;;5017685;28;20068;-75
2021/03/19 14:13:57;;;;;;;19.63;11.65;;;;;;;;;;5017211;28;20022;-75
2021/03/19 14:16:23;;;;;;;25.88;13.98;;;;;;;;;;5017715;28;20072;-75
2021/03/19 14:18:49;;;;;;;18.38;11.07;;;;;;;;;;4999976;28;20034;-75
2021/03/19 14:21:15;;;;;;;28.27;15.25;;;;;;;;;;5017359;28;20046;-75
2021/03/19 14:23:41;;;;;;;20.70;11.60;;;;;;;;;;5017720;28;20049;-75
2021/03/19 14:26:07;;;;;;;18.02;11.25;;;;;;;;;;5017481;28;20032;-75
2021/03/19 14:28:33;;;;;;;19.00;11.32;;;;;;;;;;5017668;28;20416;-75
2021/03/19 14:30:59;;;;;;;23.90;13.98;;;;;;;;;;5017401;28;20026;-76
2021/03/19 14:33:26;;;;;;;18.27;11.57;;;;;;;;;;5017365;28;20080;-75
2021/03/19 14:35:52;;;;;;;17.85;12.25;;;;;;;;;;4999868;28;20122;-76
2021/03/19 14:38:18;;;;;;;20.45;12.18;;;;;;;;;;4999617;28;20348;-76